sensor_id;sensor_type;location;lat;lon;timestamp;pressure;altitude;pressure_sealevel;temperature;humidity
55759;BME280;41678;52.126;20.664;2023-02-15T00:04:35;102087.78;;;2.96;100.00
55759;BME280;41678;52.126;20.664;2023-02-15T00:10:07;102081.91;;;3.00;100.00
55759;BME280;41678;52.126;20.664;2023-02-15T00:15:26;102078.34;;;2.98;100.00
55759;BME280;41678;52.126;20.664;2023-02-15T00:20:46;102077.44;;;2.97;100.00
55759;BME280;41678;52.126;20.664;2023-02-15T00:26:10;102081.16;;;3.03;100.00
55759;BME280;41678;52.126;20.664;2023-02-15T00:31:32;102077.22;;;2.93;100.00
55759;BME280;41678;52.126;20.664;2023-02-15T00:36:52;102066.22;;;2.98;100.00
55759;BME280;41678;52.126;20.664;2023-02-15T00:42:12;102065.16;;;2.95;100.00
55759;BME280;41678;52.126;20.664;2023-02-15T00:47:31;102053.16;;;2.97;100.00
55759;BME280;41678;52.126;20.664;2023-02-15T00:52:51;102050.44;;;2.95;100.00
55759;BME280;41678;52.126;20.664;2023-02-15T00:58:14;102050.31;;;2.92;100.00
55759;BME280;41678;52.126;20.664;2023-02-15T01:03:34;102029.94;;;2.83;100.00
55759;BME280;41678;52.126;20.664;2023-02-15T01:08:55;102048.53;;;2.91;100.00
55759;BME280;41678;52.126;20.664;2023-02-15T01:14:15;102036.03;;;2.84;100.00
55759;BME280;41678;52.126;20.664;2023-02-15T01:19:35;102033.41;;;2.84;100.00
55759;BME280;41678;52.126;20.664;2023-02-15T01:24:54;102033.28;;;2.81;100.00
55759;BME280;41678;52.126;20.664;2023-02-15T01:30:14;102025.19;;;2.75;100.00
55759;BME280;41678;52.126;20.664;2023-02-15T01:35:36;102025.38;;;2.79;100.00
55759;BME280;41678;52.126;20.664;2023-02-15T01:40:55;102020.00;;;2.75;100.00
55759;BME280;41678;52.126;20.664;2023-02-15T01:46:41;102018.34;;;2.77;100.00
55759;BME280;41678;52.126;20.664;2023-02-15T01:52:03;102012.91;;;2.72;100.00
55759;BME280;41678;52.126;20.664;2023-02-15T01:57:25;102013.19;;;2.78;100.00
55759;BME280;41678;52.126;20.664;2023-02-15T02:02:48;102006.16;;;2.76;100.00
55759;BME280;41678;52.126;20.664;2023-02-15T02:08:09;102008.97;;;2.80;100.00
55759;BME280;41678;52.126;20.664;2023-02-15T02:13:29;101996.63;;;2.76;100.00
55759;BME280;41678;52.126;20.664;2023-02-15T02:24:28;101997.41;;;2.74;100.00
55759;BME280;41678;52.126;20.664;2023-02-15T02:58:03;101983.94;;;2.64;100.00
55759;BME280;41678;52.126;20.664;2023-02-15T03:03:37;101980.59;;;2.67;100.00
55759;BME280;41678;52.126;20.664;2023-02-15T03:09:02;101968.19;;;2.61;100.00
55759;BME280;41678;52.126;20.664;2023-02-15T03:14:27;101973.31;;;2.60;100.00
55759;BME280;41678;52.126;20.664;2023-02-15T03:19:48;101984.91;;;2.66;100.00
55759;BME280;41678;52.126;20.664;2023-02-15T03:25:14;101981.19;;;2.61;100.00
55759;BME280;41678;52.126;20.664;2023-02-15T03:30:37;101988.69;;;2.55;100.00
55759;BME280;41678;52.126;20.664;2023-02-15T03:42:29;101985.34;;;2.58;100.00
55759;BME280;41678;52.126;20.664;2023-02-15T03:47:52;101973.75;;;2.51;100.00
55759;BME280;41678;52.126;20.664;2023-02-15T03:53:18;101974.50;;;2.66;100.00
55759;BME280;41678;52.126;20.664;2023-02-15T03:58:39;101970.78;;;2.61;100.00
55759;BME280;41678;52.126;20.664;2023-02-15T04:04:20;101972.44;;;2.59;100.00
55759;BME280;41678;52.126;20.664;2023-02-15T04:09:42;101969.59;;;2.54;100.00
55759;BME280;41678;52.126;20.664;2023-02-15T04:15:20;101974.94;;;2.58;100.00
55759;BME280;41678;52.126;20.664;2023-02-15T04:20:59;101953.78;;;2.50;100.00
55759;BME280;41678;52.126;20.664;2023-02-15T04:26:37;101961.56;;;2.50;100.00
55759;BME280;41678;52.126;20.664;2023-02-15T04:31:59;101964.25;;;2.51;100.00
55759;BME280;41678;52.126;20.664;2023-02-15T04:37:19;101966.78;;;2.50;100.00
55759;BME280;41678;52.126;20.664;2023-02-15T04:42:38;101963.66;;;2.39;100.00
55759;BME280;41678;52.126;20.664;2023-02-15T04:47:58;101973.38;;;2.43;100.00
55759;BME280;41678;52.126;20.664;2023-02-15T04:53:17;101974.94;;;2.39;100.00
55759;BME280;41678;52.126;20.664;2023-02-15T04:58:37;101966.84;;;2.33;100.00
55759;BME280;41678;52.126;20.664;2023-02-15T05:04:00;101962.16;;;2.44;100.00
55759;BME280;41678;52.126;20.664;2023-02-15T05:09:19;101982.66;;;2.38;100.00
55759;BME280;41678;52.126;20.664;2023-02-15T05:14:38;101976.41;;;2.34;100.00
55759;BME280;41678;52.126;20.664;2023-02-15T05:19:58;101985.47;;;2.24;100.00
55759;BME280;41678;52.126;20.664;2023-02-15T05:25:17;101977.16;;;2.14;100.00
55759;BME280;41678;52.126;20.664;2023-02-15T05:31:04;101993.19;;;2.23;100.00
55759;BME280;41678;52.126;20.664;2023-02-15T05:36:24;101981.66;;;2.18;100.00
55759;BME280;41678;52.126;20.664;2023-02-15T05:41:43;101976.31;;;2.15;100.00
55759;BME280;41678;52.126;20.664;2023-02-15T05:47:03;101987.53;;;2.14;100.00
55759;BME280;41678;52.126;20.664;2023-02-15T05:52:23;101991.09;;;2.16;100.00
55759;BME280;41678;52.126;20.664;2023-02-15T05:57:43;101989.13;;;2.11;100.00
55759;BME280;41678;52.126;20.664;2023-02-15T06:03:02;101987.22;;;2.07;100.00
55759;BME280;41678;52.126;20.664;2023-02-15T06:08:21;101987.72;;;2.00;100.00
55759;BME280;41678;52.126;20.664;2023-02-15T06:13:41;101988.06;;;1.90;100.00
55759;BME280;41678;52.126;20.664;2023-02-15T06:19:00;101985.56;;;1.91;100.00
55759;BME280;41678;52.126;20.664;2023-02-15T06:24:21;101974.09;;;1.88;100.00
55759;BME280;41678;52.126;20.664;2023-02-15T06:29:40;101988.84;;;2.05;100.00
55759;BME280;41678;52.126;20.664;2023-02-15T06:34:59;101997.59;;;2.07;100.00
55759;BME280;41678;52.126;20.664;2023-02-15T06:40:19;101992.16;;;2.03;100.00
55759;BME280;41678;52.126;20.664;2023-02-15T06:45:39;101991.72;;;1.93;100.00
55759;BME280;41678;52.126;20.664;2023-02-15T06:51:00;101991.97;;;1.98;100.00
55759;BME280;41678;52.126;20.664;2023-02-15T06:56:20;101991.72;;;1.93;100.00
55759;BME280;41678;52.126;20.664;2023-02-15T07:01:40;101988.06;;;1.90;100.00
55759;BME280;41678;52.126;20.664;2023-02-15T07:06:59;101986.91;;;2.01;100.00
55759;BME280;41678;52.126;20.664;2023-02-15T07:12:19;101988.38;;;1.96;100.00
55759;BME280;41678;52.126;20.664;2023-02-15T07:17:58;101996.53;;;1.86;100.00
55759;BME280;41678;52.126;20.664;2023-02-15T07:23:18;101986.59;;;1.78;100.00
55759;BME280;41678;52.126;20.664;2023-02-15T07:28:38;101991.16;;;1.82;100.00
55759;BME280;41678;52.126;20.664;2023-02-15T07:33:57;101998.16;;;1.83;100.00
55759;BME280;41678;52.126;20.664;2023-02-15T07:39:16;101979.88;;;1.82;100.00
55759;BME280;41678;52.126;20.664;2023-02-15T07:44:36;101978.47;;;1.89;100.00
55759;BME280;41678;52.126;20.664;2023-02-15T07:49:56;101980.34;;;1.91;100.00
55759;BME280;41678;52.126;20.664;2023-02-15T07:55:18;101967.56;;;1.78;100.00
55759;BME280;41678;52.126;20.664;2023-02-15T08:00:38;101961.94;;;1.87;100.00
55759;BME280;41678;52.126;20.664;2023-02-15T08:06:16;101958.78;;;1.76;100.00
55759;BME280;41678;52.126;20.664;2023-02-15T08:11:37;101958.84;;;1.77;100.00
55759;BME280;41678;52.126;20.664;2023-02-15T08:16:59;101958.03;;;1.78;100.00
55759;BME280;41678;52.126;20.664;2023-02-15T08:22:21;101950.25;;;1.78;100.00
55759;BME280;41678;52.126;20.664;2023-02-15T08:27:41;101935.91;;;1.68;100.00
55759;BME280;41678;52.126;20.664;2023-02-15T08:33:00;101943.22;;;1.76;100.00
55759;BME280;41678;52.126;20.664;2023-02-15T08:38:20;101953.00;;;1.81;100.00
55759;BME280;41678;52.126;20.664;2023-02-15T08:43:41;101939.03;;;1.79;100.00
55759;BME280;41678;52.126;20.664;2023-02-15T08:49:01;101932.41;;;1.84;100.00
55759;BME280;41678;52.126;20.664;2023-02-15T08:54:21;101928.84;;;1.82;100.00
55759;BME280;41678;52.126;20.664;2023-02-15T08:59:41;101920.22;;;1.83;100.00
55759;BME280;41678;52.126;20.664;2023-02-15T09:05:00;101926.63;;;1.90;100.00
55759;BME280;41678;52.126;20.664;2023-02-15T09:10:20;101920.81;;;1.96;100.00
55759;BME280;41678;52.126;20.664;2023-02-15T09:15:40;101914.97;;;2.00;100.00
55759;BME280;41678;52.126;20.664;2023-02-15T09:21:09;101907.81;;;1.96;100.00
55759;BME280;41678;52.126;20.664;2023-02-15T09:26:30;101902.88;;;2.01;100.00
55759;BME280;41678;52.126;20.664;2023-02-15T09:31:50;101907.34;;;2.03;100.00
55759;BME280;41678;52.126;20.664;2023-02-15T09:37:10;101898.25;;;1.95;100.00
55759;BME280;41678;52.126;20.664;2023-02-15T09:42:42;101904.19;;;2.10;100.00
55759;BME280;41678;52.126;20.664;2023-02-15T10:00:31;101892.41;;;1.99;100.00
55759;BME280;41678;52.126;20.664;2023-02-15T10:06:17;101885.59;;;2.01;100.00
55759;BME280;41678;52.126;20.664;2023-02-15T10:28:18;101876.16;;;2.21;100.00
55759;BME280;41678;52.126;20.664;2023-02-15T10:33:38;101863.75;;;2.16;100.00
55759;BME280;41678;52.126;20.664;2023-02-15T10:39:12;101851.38;;;2.28;100.00
55759;BME280;41678;52.126;20.664;2023-02-15T11:06:59;101836.19;;;2.37;100.00
55759;BME280;41678;52.126;20.664;2023-02-15T11:12:24;101827.28;;;2.32;100.00
55759;BME280;41678;52.126;20.664;2023-02-15T11:17:56;101831.94;;;2.39;100.00
55759;BME280;41678;52.126;20.664;2023-02-15T11:23:17;101824.44;;;2.46;100.00
55759;BME280;41678;52.126;20.664;2023-02-15T11:28:42;101822.94;;;2.51;100.00
55759;BME280;41678;52.126;20.664;2023-02-15T11:34:12;101820.25;;;2.49;100.00
55759;BME280;41678;52.126;20.664;2023-02-15T11:39:34;101804.53;;;2.46;100.00
55759;BME280;41678;52.126;20.664;2023-02-15T11:45:21;101809.84;;;2.49;100.00
55759;BME280;41678;52.126;20.664;2023-02-15T11:50:44;101800.56;;;2.54;100.00
55759;BME280;41678;52.126;20.664;2023-02-15T11:56:04;101790.88;;;2.50;100.00
55759;BME280;41678;52.126;20.664;2023-02-15T12:12:40;101777.44;;;2.61;100.00
55759;BME280;41678;52.126;20.664;2023-02-15T12:18:00;101772.53;;;2.67;100.00
55759;BME280;41678;52.126;20.664;2023-02-15T12:23:20;101759.19;;;2.59;100.00
55759;BME280;41678;52.126;20.664;2023-02-15T12:28:42;101762.97;;;2.66;100.00
55759;BME280;41678;52.126;20.664;2023-02-15T12:34:10;101750.75;;;2.65;100.00
55759;BME280;41678;52.126;20.664;2023-02-15T12:39:31;101747.41;;;2.67;100.00
55759;BME280;41678;52.126;20.664;2023-02-15T12:50:24;101749.19;;;2.68;100.00
55759;BME280;41678;52.126;20.664;2023-02-15T12:56:12;101737.41;;;2.77;100.00
55759;BME280;41678;52.126;20.664;2023-02-15T13:01:33;101732.88;;;2.73;100.00
55759;BME280;41678;52.126;20.664;2023-02-15T13:06:59;101712.28;;;2.77;100.00
55759;BME280;41678;52.126;20.664;2023-02-15T13:12:25;101718.72;;;2.86;100.00
55759;BME280;41678;52.126;20.664;2023-02-15T13:17:49;101711.53;;;2.80;100.00
55759;BME280;41678;52.126;20.664;2023-02-15T13:23:22;101702.97;;;2.82;100.00
55759;BME280;41678;52.126;20.664;2023-02-15T13:28:50;101711.53;;;2.80;100.00
55759;BME280;41678;52.126;20.664;2023-02-15T13:34:15;101713.22;;;2.79;100.00
55759;BME280;41678;52.126;20.664;2023-02-15T13:40:02;101706.19;;;2.77;100.00
55759;BME280;41678;52.126;20.664;2023-02-15T13:56:38;101691.78;;;2.85;100.00
55759;BME280;41678;52.126;20.664;2023-02-15T14:07:58;101689.66;;;2.75;100.00
55759;BME280;41678;52.126;20.664;2023-02-15T14:19:09;101677.63;;;2.78;100.00
55759;BME280;41678;52.126;20.664;2023-02-15T14:24:40;101675.09;;;2.80;100.00
55759;BME280;41678;52.126;20.664;2023-02-15T14:30:29;101677.31;;;2.71;100.00
55759;BME280;41678;52.126;20.664;2023-02-15T14:35:51;101671.03;;;2.65;100.00
55759;BME280;41678;52.126;20.664;2023-02-15T14:41:17;101681.84;;;2.75;100.00
55759;BME280;41678;52.126;20.664;2023-02-15T14:57:27;101662.41;;;2.66;100.00
55759;BME280;41678;52.126;20.664;2023-02-15T15:02:51;101662.16;;;2.60;100.00
55759;BME280;41678;52.126;20.664;2023-02-15T15:08:25;101655.16;;;2.59;100.00
55759;BME280;41678;52.126;20.664;2023-02-15T15:13:54;101652.38;;;2.54;100.00
55759;BME280;41678;52.126;20.664;2023-02-15T15:25:09;101634.38;;;2.39;100.00
55759;BME280;41678;52.126;20.664;2023-02-15T15:42:19;101636.03;;;2.37;100.00
55759;BME280;41678;52.126;20.664;2023-02-15T15:53:00;101624.59;;;2.34;100.00
55759;BME280;41678;52.126;20.664;2023-02-15T15:58:22;101622.63;;;2.28;100.00
55759;BME280;41678;52.126;20.664;2023-02-15T16:03:54;101626.31;;;2.33;100.00
55759;BME280;41678;52.126;20.664;2023-02-15T16:09:23;101620.69;;;2.24;100.00
55759;BME280;41678;52.126;20.664;2023-02-15T16:14:43;101616.34;;;2.23;100.00
55759;BME280;41678;52.126;20.664;2023-02-15T16:20:16;101611.81;;;2.19;100.00
55759;BME280;41678;52.126;20.664;2023-02-15T16:31:15;101601.44;;;2.19;100.00
55759;BME280;41678;52.126;20.664;2023-02-15T16:36:34;101599.53;;;2.15;100.00
55759;BME280;41678;52.126;20.664;2023-02-15T16:41:54;101595.19;;;2.15;100.00
55759;BME280;41678;52.126;20.664;2023-02-15T16:47:26;101583.66;;;2.08;100.00
55759;BME280;41678;52.126;20.664;2023-02-15T16:52:46;101585.91;;;2.01;100.00
55759;BME280;41678;52.126;20.664;2023-02-15T16:58:27;101579.69;;;1.97;100.00
55759;BME280;41678;52.126;20.664;2023-02-15T17:03:49;101574.91;;;2.06;100.00
55759;BME280;41678;52.126;20.664;2023-02-15T17:09:16;101584.00;;;1.96;100.00
55759;BME280;41678;52.126;20.664;2023-02-15T17:14:41;101573.00;;;2.02;100.00
55759;BME280;41678;52.126;20.664;2023-02-15T17:20:01;101569.84;;;2.09;100.00
55759;BME280;41678;52.126;20.664;2023-02-15T17:25:26;101562.53;;;2.01;100.00
55759;BME280;41678;52.126;20.664;2023-02-15T17:30:50;101555.56;;;2.00;100.00
55759;BME280;41678;52.126;20.664;2023-02-15T17:36:18;101560.28;;;1.89;100.00
55759;BME280;41678;52.126;20.664;2023-02-15T17:41:42;101546.59;;;1.93;100.00
55759;BME280;41678;52.126;20.664;2023-02-15T17:47:03;101544.97;;;1.95;100.00
55759;BME280;41678;52.126;20.664;2023-02-15T17:52:24;101550.94;;;1.92;100.00
55759;BME280;41678;52.126;20.664;2023-02-15T17:57:46;101535.00;;;1.84;100.00
55759;BME280;41678;52.126;20.664;2023-02-15T18:09:21;101528.16;;;1.87;100.00
55759;BME280;41678;52.126;20.664;2023-02-15T18:15:00;101525.56;;;1.87;100.00
55759;BME280;41678;52.126;20.664;2023-02-15T18:20:23;101518.59;;;1.86;100.00
55759;BME280;41678;52.126;20.664;2023-02-15T18:25:51;101519.41;;;1.84;100.00
55759;BME280;41678;52.126;20.664;2023-02-15T18:31:11;101509.41;;;1.94;100.00
55759;BME280;41678;52.126;20.664;2023-02-15T18:36:34;101513.53;;;1.89;100.00
55759;BME280;41678;52.126;20.664;2023-02-15T18:41:55;101511.47;;;1.81;100.00
55759;BME280;41678;52.126;20.664;2023-02-15T18:47:15;101502.06;;;1.83;100.00
55759;BME280;41678;52.126;20.664;2023-02-15T18:52:36;101503.34;;;1.93;100.00
55759;BME280;41678;52.126;20.664;2023-02-15T18:57:57;101491.09;;;1.91;100.00
55759;BME280;41678;52.126;20.664;2023-02-15T19:03:17;101494.94;;;1.79;100.00
55759;BME280;41678;52.126;20.664;2023-02-15T19:08:37;101499.19;;;1.77;100.00
55759;BME280;41678;52.126;20.664;2023-02-15T19:13:57;101487.91;;;1.77;100.00
55759;BME280;41678;52.126;20.664;2023-02-15T19:19:17;101477.56;;;1.78;100.00
55759;BME280;41678;52.126;20.664;2023-02-15T19:24:38;101482.78;;;1.78;100.00
55759;BME280;41678;52.126;20.664;2023-02-15T19:30:00;101470.81;;;1.82;100.00
55759;BME280;41678;52.126;20.664;2023-02-15T19:35:25;101464.06;;;1.86;100.00
55759;BME280;41678;52.126;20.664;2023-02-15T19:40:45;101467.28;;;1.80;100.00
55759;BME280;41678;52.126;20.664;2023-02-15T19:46:05;101465.69;;;1.83;100.00
55759;BME280;41678;52.126;20.664;2023-02-15T19:51:25;101452.44;;;1.77;100.00
55759;BME280;41678;52.126;20.664;2023-02-15T19:56:58;101450.78;;;1.79;100.00
55759;BME280;41678;52.126;20.664;2023-02-15T20:02:18;101434.13;;;1.74;100.00
55759;BME280;41678;52.126;20.664;2023-02-15T20:07:53;101432.34;;;1.73;100.00
55759;BME280;41678;52.126;20.664;2023-02-15T20:13:15;101425.19;;;1.67;100.00
55759;BME280;41678;52.126;20.664;2023-02-15T20:18:35;101418.09;;;1.63;100.00
55759;BME280;41678;52.126;20.664;2023-02-15T20:23:54;101418.72;;;1.58;100.00
55759;BME280;41678;52.126;20.664;2023-02-15T20:29:15;101419.31;;;1.52;100.00
55759;BME280;41678;52.126;20.664;2023-02-15T20:34:36;101417.56;;;1.51;100.00
55759;BME280;41678;52.126;20.664;2023-02-15T20:39:56;101405.88;;;1.41;100.00
55759;BME280;41678;52.126;20.664;2023-02-15T20:45:19;101396.13;;;1.35;100.00
55759;BME280;41678;52.126;20.664;2023-02-15T20:50:44;101401.06;;;1.29;100.00
55759;BME280;41678;52.126;20.664;2023-02-15T20:56:03;101402.47;;;1.22;100.00
55759;BME280;41678;52.126;20.664;2023-02-15T21:01:23;101408.19;;;1.15;100.00
55759;BME280;41678;52.126;20.664;2023-02-15T21:06:43;101396.75;;;1.10;100.00
55759;BME280;41678;52.126;20.664;2023-02-15T21:12:02;101390.31;;;1.02;100.00
55759;BME280;41678;52.126;20.664;2023-02-15T21:17:22;101381.31;;;0.93;100.00
55759;BME280;41678;52.126;20.664;2023-02-15T21:22:42;101382.78;;;0.88;100.00
55759;BME280;41678;52.126;20.664;2023-02-15T21:28:02;101387.81;;;0.85;100.00
55759;BME280;41678;52.126;20.664;2023-02-15T21:33:22;101372.00;;;0.79;100.00
55759;BME280;41678;52.126;20.664;2023-02-15T21:38:42;101359.34;;;0.67;100.00
55759;BME280;41678;52.126;20.664;2023-02-15T21:44:15;101355.75;;;0.63;100.00
55759;BME280;41678;52.126;20.664;2023-02-15T21:49:53;101332.06;;;0.55;100.00
55759;BME280;41678;52.126;20.664;2023-02-15T21:55:14;101339.63;;;0.51;100.00
55759;BME280;41678;52.126;20.664;2023-02-15T22:00:34;101331.72;;;0.48;100.00
55759;BME280;41678;52.126;20.664;2023-02-15T22:05:53;101324.44;;;0.40;100.00
55759;BME280;41678;52.126;20.664;2023-02-15T22:11:16;101320.16;;;0.41;100.00
55759;BME280;41678;52.126;20.664;2023-02-15T22:16:36;101312.91;;;0.34;100.00
55759;BME280;41678;52.126;20.664;2023-02-15T22:21:56;101290.13;;;0.26;100.00
55759;BME280;41678;52.126;20.664;2023-02-15T22:27:21;101288.38;;;0.25;100.00
55759;BME280;41678;52.126;20.664;2023-02-15T22:32:44;101294.28;;;0.23;100.00
55759;BME280;41678;52.126;20.664;2023-02-15T22:38:03;101269.72;;;0.14;100.00
55759;BME280;41678;52.126;20.664;2023-02-15T22:43:43;101270.38;;;0.10;100.00
55759;BME280;41678;52.126;20.664;2023-02-15T22:49:03;101253.66;;;0.04;100.00
55759;BME280;41678;52.126;20.664;2023-02-15T22:54:22;101265.66;;;0.02;100.00
55759;BME280;41678;52.126;20.664;2023-02-15T22:59:42;101264.34;;;-0.08;100.00
55759;BME280;41678;52.126;20.664;2023-02-15T23:05:01;101260.72;;;-0.12;100.00
55759;BME280;41678;52.126;20.664;2023-02-15T23:10:23;101265.84;;;-0.13;100.00
55759;BME280;41678;52.126;20.664;2023-02-15T23:15:45;101256.06;;;-0.19;100.00
55759;BME280;41678;52.126;20.664;2023-02-15T23:21:20;101254.22;;;-0.22;99.92
55759;BME280;41678;52.126;20.664;2023-02-15T23:26:40;101249.56;;;-0.29;100.00
55759;BME280;41678;52.126;20.664;2023-02-15T23:31:59;101255.47;;;-0.32;100.00
55759;BME280;41678;52.126;20.664;2023-02-15T23:37:19;101241.44;;;-0.37;100.00
55759;BME280;41678;52.126;20.664;2023-02-15T23:42:38;101233.59;;;-0.38;100.00
55759;BME280;41678;52.126;20.664;2023-02-15T23:47:58;101221.97;;;-0.47;100.00
55759;BME280;41678;52.126;20.664;2023-02-15T23:53:36;101216.59;;;-0.51;100.00
55759;BME280;41678;52.126;20.664;2023-02-15T23:58:56;101217.19;;;-0.57;100.00
